SBRF/REC METAR and TAF weather

Enter ICAO airport designator
Station Type Date Time Source
SBRF METAR 2021/05/11 23:00 UTC NOAA

SBRF 112300Z 21006KT 9999 BKN016 24/21 Q1014


Station Type Date Time Source
SBRF Decoded METAR 2021/05/11 23:00 UTC NOAA

Recife Aeroporto , Brazil (SBRF) 08-04S 034-51W
May 11, 2021 - 07:00 PM EDT / 2021.05.11 2300 UTC
Wind: from the SSW (210 degrees) at 7 MPH (6 KT):0
Visibility: greater than 7 mile(s):0
Sky conditions: mostly cloudy
Temperature: 75 F (24 C)
Dew Point: 69 F (21 C)
Relative Humidity: 83%
Pressure (altimeter): 29.94 in. Hg (1014 hPa)
ob: SBRF 112300Z 21006KT 9999 BKN016 24/21 Q1014
cycle: 23

Station Type Date Time Source
SBRF TAF 2021/05/11 18:36 UTC NOAA

TAF SBRF 111420Z 1118/1218 15015KT 8000 SCT015 FEW020TCU TX28/1118Z TN23/1209Z
BECMG 1122/1124 17010KT SCT020
BECMG 1204/1206 22005KT SCT010 PROB30 1206/1211 4000 RA SCT015 FEW025TCU
BECMG 1213/1215 14015KT 9999 SCT020
RMK PGZ

Example: see airport list